Time;durP1;ratioP1;P1;durP2;ratioP2;P2;SDS_P1;SDS_P2;PMS_P1;PMS_P2;Temp;Humidity;BMP_temperature;BMP_pressure;BME280_temperature;BME280_humidity;BME280_pressure;Samples;Min_cycle;Max_cycle;Signal;HPM_P1;HPM_P2
2022/05/16 00:01:09;;;;;;;2.88;1.50;;;;;;;18.92;nan;100347.97;5044289;28;20060;-79
2022/05/16 00:03:34;;;;;;;3.33;1.58;;;;;;;19.04;nan;100350.81;5039714;28;20037;-78
2022/05/16 00:06:00;;;;;;;2.83;1.40;;;;;;;19.04;nan;100358.84;5038042;28;20037;-78
2022/05/16 00:08:26;;;;;;;3.08;1.50;;;;;;;19.15;nan;100352.84;5034654;28;20037;-78
2022/05/16 00:10:51;;;;;;;3.45;1.77;;;;;;;19.24;nan;100346.19;5034880;28;20064;-78
2022/05/16 00:13:16;;;;;;;3.33;1.50;;;;;;;19.39;nan;100347.78;5036041;28;20427;-78
2022/05/16 00:15:42;;;;;;;2.50;1.40;;;;;;;19.47;nan;100353.72;5041453;28;20038;-78
2022/05/16 00:18:07;;;;;;;4.20;1.42;;;;;;;19.52;nan;100347.69;5035663;28;20037;-79
2022/05/16 00:20:33;;;;;;;2.50;1.55;;;;;;;19.76;nan;100353.38;5033706;28;20400;-78
2022/05/16 00:22:59;;;;;;;3.55;1.63;;;;;;;19.85;nan;100344.03;5037078;28;20727;-79
2022/05/16 00:25:24;;;;;;;2.45;1.20;;;;;;;19.86;nan;100340.31;5033872;28;20053;-78
2022/05/16 00:27:50;;;;;;;2.92;1.38;;;;;;;19.85;nan;100338.66;5043029;28;20052;-79
2022/05/16 00:30:19;;;;;;;2.50;1.45;;;;;;;20.04;nan;100343.03;5036016;28;20061;-79
2022/05/16 00:32:45;;;;;;;4.15;1.65;;;;;;;20.13;nan;100335.56;5036429;28;20381;-79
2022/05/16 00:35:11;;;;;;;2.30;1.30;;;;;;;20.21;nan;100339.81;5038110;28;20091;-79
2022/05/16 00:37:37;;;;;;;2.75;1.38;;;;;;;20.32;nan;100337.25;5018996;28;20241;-79
2022/05/16 00:40:05;;;;;;;3.80;1.33;;;;;;;20.35;nan;100338.66;5020853;28;20264;-79
2022/05/16 00:42:30;;;;;;;2.58;1.20;;;;;;;20.42;nan;100330.53;5036692;28;20833;-79
2022/05/16 00:44:55;;;;;;;1.73;1.17;;;;;;;20.58;nan;100333.50;5038425;28;20482;-79
2022/05/16 00:47:21;;;;;;;2.13;1.30;;;;;;;20.66;nan;100326.19;5036004;28;20033;-78
2022/05/16 00:49:49;;;;;;;3.72;1.42;;;;;;;20.57;nan;100326.50;5040902;28;20419;-78
2022/05/16 00:52:20;;;;;;;3.03;1.20;;;;;;;20.46;nan;100324.50;5035124;28;20033;-79
2022/05/16 00:54:53;;;;;;;2.60;1.20;;;;;;;20.35;nan;100322.53;5046118;28;20040;-79
2022/05/16 00:57:22;;;;;;;3.00;1.42;;;;;;;20.28;nan;100324.47;5044388;28;20044;-79
2022/05/16 01:00:03;;;;;;;2.67;1.13;;;;;;;20.29;nan;100320.75;5042840;28;20132;-79
2022/05/16 01:05:14;;;;;;;2.72;1.30;;;;;;;20.50;nan;100319.53;5035073;28;20521;-79
2022/05/16 01:07:44;;;;;;;2.42;1.10;;;;;;;20.56;nan;100324.84;5032270;28;20041;-80
2022/05/16 01:10:13;;;;;;;2.25;1.20;;;;;;;20.58;nan;100321.94;5014532;28;20033;-79
2022/05/16 01:12:41;;;;;;;3.22;1.30;;;;;;;20.64;nan;100315.69;5036592;28;20037;-79
2022/05/16 01:15:30;;;;;;;1.98;1.00;;;;;;;20.75;nan;100316.81;5036755;28;20467;-79
2022/05/16 01:17:56;;;;;;;1.15;0.80;;;;;;;20.62;nan;100312.41;5035772;28;20040;-80
2022/05/16 01:20:22;;;;;;;1.80;0.83;;;;;;;20.64;nan;100321.06;5033739;28;20405;-79
2022/05/16 01:22:52;;;;;;;1.73;0.90;;;;;;;20.46;nan;100324.50;5032411;28;20394;-80
2022/05/16 01:25:22;;;;;;;;;;;;;;;20.32;nan;100320.31;5038360;28;20064;-80
2022/05/16 01:27:55;;;;;;;2.70;1.17;;;;;;;20.21;nan;100329.91;5035026;28;19951;-79
2022/05/16 01:30:24;;;;;;;2.03;1.10;;;;;;;20.15;nan;100328.91;5037734;28;20483;-79
2022/05/16 01:32:49;;;;;;;1.85;0.93;;;;;;;20.12;nan;100334.75;5041493;28;20025;-79
2022/05/16 01:35:23;;;;;;;;;;;;;;;20.05;nan;100333.16;5042621;28;20168;-79
2022/05/16 01:40:34;;;;;;;1.55;1.02;;;;;;;20.11;nan;100330.38;5034069;28;20422;-79
2022/05/16 01:43:00;;;;;;;2.10;1.20;;;;;;;20.10;nan;100320.72;5030987;28;20404;-79
2022/05/16 01:45:25;;;;;;;2.10;1.20;;;;;;;20.08;nan;100333.53;5030137;28;20411;-78
2022/05/16 01:47:50;;;;;;;2.23;1.10;;;;;;;20.03;nan;100340.59;5030952;28;20456;-79
2022/05/16 01:50:16;;;;;;;;;;;;;;;19.80;nan;100339.31;5036539;28;20022;-79
2022/05/16 01:52:41;;;;;;;2.20;1.10;;;;;;;19.69;nan;100340.84;5033807;28;19957;-79
2022/05/16 01:55:07;;;;;;;1.75;1.00;;;;;;;19.61;nan;100338.34;5034088;28;20303;-79
2022/05/16 01:57:33;;;;;;;2.05;1.00;;;;;;;19.55;nan;100333.06;5032603;28;20033;-79
2022/05/16 01:59:58;;;;;;;1.73;1.08;;;;;;;19.48;nan;100339.28;5031536;28;20113;-79
2022/05/16 02:02:23;;;;;;;2.10;1.13;;;;;;;19.64;nan;100337.09;5032176;28;20449;-79
2022/05/16 02:04:49;;;;;;;1.90;1.20;;;;;;;19.70;nan;100345.16;5030484;28;20421;-79
2022/05/16 02:07:14;;;;;;;2.67;1.20;;;;;;;19.74;nan;100345.56;5030640;28;20686;-79
2022/05/16 02:09:39;;;;;;;2.10;1.20;;;;;;;19.76;nan;100338.13;5028657;28;20502;-79
2022/05/16 02:12:05;;;;;;;2.30;1.20;;;;;;;19.78;nan;100335.19;5031508;28;20411;-79
2022/05/16 02:14:30;;;;;;;1.98;1.20;;;;;;;19.77;nan;100331.69;5013566;28;20497;-79
2022/05/16 02:16:56;;;;;;;1.73;1.10;;;;;;;19.73;nan;100317.91;5030887;28;20422;-79
2022/05/16 02:19:21;;;;;;;2.30;1.43;;;;;;;19.75;nan;100324.91;5030008;28;20502;-79
2022/05/16 02:24:39;;;;;;;1.38;0.85;;;;;;;19.61;nan;100322.25;5029490;28;20422;-79
2022/05/16 02:27:09;;;;;;;1.42;1.00;;;;;;;19.59;nan;100324.34;5037380;28;21069;-79
2022/05/16 02:29:34;;;;;;;2.67;1.30;;;;;;;19.56;nan;100316.72;5032312;28;20904;-79
2022/05/16 02:32:01;;;;;;;2.33;1.40;;;;;;;19.54;nan;100316.13;5037228;28;20409;-79
2022/05/16 02:34:26;;;;;;;2.65;1.65;;;;;;;19.31;nan;100322.88;5029613;28;20554;-79
2022/05/16 02:36:52;;;;;;;;;;;;;;;19.15;nan;100319.84;5035413;28;20061;-79
2022/05/16 02:39:18;;;;;;;2.70;1.52;;;;;;;19.06;nan;100327.31;5010974;28;19929;-79
2022/05/16 02:41:43;;;;;;;;;;;;;;;18.93;nan;100322.81;5019979;28;20122;-79
2022/05/16 02:44:09;;;;;;;3.73;1.47;;;;;;;18.87;nan;100320.97;5032956;28;20370;-79
2022/05/16 02:46:35;;;;;;;1.97;1.40;;;;;;;18.93;nan;100317.47;5032921;28;20398;-79
2022/05/16 02:49:00;;;;;;;2.08;1.30;;;;;;;18.97;nan;100332.06;5030886;28;20514;-79
2022/05/16 02:51:26;;;;;;;1.70;1.10;;;;;;;18.95;nan;100327.94;5014826;28;20860;-79
2022/05/16 02:53:51;;;;;;;1.65;1.20;;;;;;;18.90;nan;100344.66;5038975;28;20405;-79
2022/05/16 02:56:16;;;;;;;;;;;;;;;18.58;nan;100341.84;5031892;28;20159;-79
2022/05/16 02:58:43;;;;;;;;;;;;;;;18.36;nan;100349.28;5042187;28;19924;-79
2022/05/16 03:01:08;;;;;;;;;;;;;;;18.15;nan;100349.50;5031807;28;19925;-79
2022/05/16 03:03:33;;;;;;;;;;;;;;;17.94;nan;100356.69;5037216;28;19917;-79
2022/05/16 03:05:59;;;;;;;;;;;;;;;17.75;nan;100355.59;5012757;28;19917;-79
2022/05/16 03:08:24;;;;;;;;;;;;;;;17.54;nan;100351.25;5036633;28;19928;-79
2022/05/16 03:10:49;;;;;;;;;;;;;;;17.36;nan;100373.19;5033603;28;19943;-80
2022/05/16 03:13:14;;;;;;;;;;;;;;;17.18;nan;100376.41;5035578;28;19952;-80
2022/05/16 03:15:40;;;;;;;4.13;2.60;;;;;;;17.10;nan;100373.06;5016937;28;19920;-79
2022/05/16 03:18:05;;;;;;;3.80;2.08;;;;;;;16.98;nan;100375.47;5028681;28;20045;-79
2022/05/16 03:20:31;;;;;;;3.28;1.85;;;;;;;16.86;nan;100374.38;5037934;28;20117;-79
2022/05/16 03:22:56;;;;;;;2.47;1.70;;;;;;;16.77;nan;100381.69;5039583;28;20025;-79
2022/05/16 03:25:22;;;;;;;3.97;2.38;;;;;;;16.70;nan;100370.13;5033618;28;20060;-80
2022/05/16 03:27:47;;;;;;;4.00;2.08;;;;;;;16.64;nan;100373.59;5032524;28;20334;-80
2022/05/16 03:30:13;;;;;;;3.30;2.00;;;;;;;16.58;nan;100377.03;5034432;28;20495;-79
2022/05/16 03:32:38;;;;;;;3.50;2.38;;;;;;;16.53;nan;100366.94;5038476;28;20385;-79
2022/05/16 03:35:06;;;;;;;3.80;2.53;;;;;;;16.47;nan;100375.72;5036455;28;20406;-79
2022/05/16 03:37:31;;;;;;;;;;;;;;;16.35;nan;100375.41;5015458;28;20169;-79
2022/05/16 03:42:40;;;;;;;3.78;2.13;;;;;;;16.19;nan;100368.53;5034843;28;20037;-79
2022/05/16 03:45:06;;;;;;;4.40;2.40;;;;;;;16.12;nan;100371.16;5020034;28;20037;-79
2022/05/16 03:47:32;;;;;;;2.85;1.83;;;;;;;16.08;nan;100367.19;5032619;28;20803;-79
2022/05/16 03:49:57;;;;;;;2.50;1.80;;;;;;;16.04;nan;100373.09;5036727;28;20136;-79
2022/05/16 03:52:22;;;;;;;3.65;2.13;;;;;;;15.96;nan;100376.72;5037770;28;20064;-79
2022/05/16 03:54:48;;;;;;;2.38;1.67;;;;;;;15.92;nan;100365.63;5040585;28;20045;-79
2022/05/16 03:57:13;;;;;;;2.40;1.70;;;;;;;15.91;nan;100371.97;5015228;28;20029;-80
2022/05/16 03:59:39;;;;;;;;;;;;;;;15.81;nan;100371.47;5032554;28;20029;-79
2022/05/16 04:02:05;;;;;;;4.10;2.77;;;;;;;15.77;nan;100362.19;5037963;28;19951;-79
2022/05/16 04:04:31;;;;;;;2.95;1.80;;;;;;;15.93;nan;100364.63;5033316;28;20813;-79
2022/05/16 04:06:56;;;;;;;3.17;1.90;;;;;;;15.89;nan;100371.34;5031461;28;20071;-80
2022/05/16 04:09:22;;;;;;;3.13;2.03;;;;;;;15.91;nan;100373.81;5036204;28;20029;-80
2022/05/16 04:11:48;;;;;;;3.25;2.22;;;;;;;15.90;nan;100380.19;5036338;28;20025;-79
2022/05/16 04:14:13;;;;;;;3.22;2.10;;;;;;;15.93;nan;100380.63;5035536;28;20040;-79
2022/05/16 04:16:39;;;;;;;2.85;1.80;;;;;;;15.96;nan;100387.41;5035872;28;20031;-80
2022/05/16 04:19:07;;;;;;;2.70;2.00;;;;;;;16.05;nan;100383.59;5035746;28;20040;-80
2022/05/16 04:21:35;;;;;;;2.58;1.90;;;;;;;16.14;nan;100382.44;5037924;28;20526;-79
2022/05/16 04:24:01;;;;;;;2.65;1.63;;;;;;;16.27;nan;100386.25;5034500;28;20515;-79
2022/05/16 04:26:27;;;;;;;2.92;1.83;;;;;;;16.38;nan;100390.25;5033998;28;20033;-79
2022/05/16 04:28:52;;;;;;;2.50;1.90;;;;;;;16.47;nan;100389.91;5036260;28;20495;-79
2022/05/16 04:31:18;;;;;;;2.63;1.80;;;;;;;16.60;nan;100389.19;5035759;28;20046;-78
2022/05/16 04:33:43;;;;;;;3.40;1.85;;;;;;;16.70;nan;100378.97;5037273;28;20103;-80
2022/05/16 04:36:08;;;;;;;3.47;2.00;;;;;;;16.82;nan;100383.81;5034186;28;20442;-79
2022/05/16 04:38:34;;;;;;;2.58;1.88;;;;;;;16.94;nan;100391.06;5018921;28;20041;-80
2022/05/16 04:43:43;;;;;;;3.67;1.88;;;;;;;17.19;nan;100391.41;5040235;28;20047;-80
2022/05/16 04:46:09;;;;;;;2.30;1.50;;;;;;;17.37;nan;100382.84;5053820;28;20064;-80
2022/05/16 04:48:34;;;;;;;;;;;;;;;17.58;nan;100375.72;5037466;28;20495;-80
2022/05/16 04:51:00;;;;;;;2.75;1.80;;;;;;;17.87;nan;100376.44;5036499;28;19928;-79
2022/05/16 04:53:25;;;;;;;2.70;2.10;;;;;;;18.07;nan;100387.16;5016233;28;20073;-80
2022/05/16 04:55:51;;;;;;;2.30;1.75;;;;;;;18.22;nan;100385.94;5030972;28;20034;-80
2022/05/16 04:58:16;;;;;;;2.83;2.15;;;;;;;18.34;nan;100379.97;5034546;28;20105;-80
2022/05/16 05:00:42;;;;;;;3.38;2.30;;;;;;;18.48;nan;100389.66;5035245;28;20025;-80
2022/05/16 05:03:07;;;;;;;4.22;2.25;;;;;;;18.66;nan;100389.84;5015655;28;20030;-80
2022/05/16 05:05:35;;;;;;;2.58;1.80;;;;;;;18.84;nan;100383.84;5034361;28;20045;-79
2022/05/16 05:08:00;;;;;;;5.28;1.80;;;;;;;18.98;nan;100392.69;5034194;28;20041;-80
2022/05/16 05:16:06;;;;;;;2.42;1.40;;;;;;;19.56;nan;100383.78;5034509;28;20133;-80
2022/05/16 05:18:31;;;;;;;2.72;1.40;;;;;;;19.76;nan;100380.19;5006861;28;20069;-79
2022/05/16 05:20:56;;;;;;;3.17;1.60;;;;;;;19.99;nan;100385.81;5035508;28;20061;-79
2022/05/16 05:23:22;;;;;;;2.92;1.50;;;;;;;20.23;nan;100378.81;5034473;28;20121;-79
2022/05/16 05:25:47;;;;;;;1.88;1.20;;;;;;;20.57;nan;100393.66;5014585;28;20503;-79
2022/05/16 05:28:12;;;;;;;2.25;1.30;;;;;;;20.82;nan;100394.66;5032720;28;20041;-79
2022/05/16 05:30:38;;;;;;;1.83;1.10;;;;;;;21.07;nan;100398.13;5034347;28;20038;-79
2022/05/16 05:33:03;;;;;;;2.03;1.20;;;;;;;21.29;nan;100403.84;5017085;28;20033;-79
2022/05/16 05:35:29;;;;;;;2.17;1.50;;;;;;;21.62;nan;100398.09;5034977;28;20033;-79
2022/05/16 05:37:55;;;;;;;1.92;1.30;;;;;;;22.00;nan;100399.63;5035251;28;20041;-79
2022/05/16 05:40:21;;;;;;;4.15;1.88;;;;;;;22.11;nan;100406.06;5032221;28;20048;-79
2022/05/16 05:42:47;;;;;;;2.88;1.58;;;;;;;22.14;nan;100410.97;5024861;28;20029;-79
2022/05/16 05:45:14;;;;;;;3.17;1.73;;;;;;;22.27;nan;100418.91;5038469;28;20544;-79
2022/05/16 05:47:39;;;;;;;3.55;2.00;;;;;;;22.45;nan;100412.63;5035606;28;20041;-79
2022/05/16 05:50:06;;;;;;;3.40;1.70;;;;;;;22.47;nan;100415.06;5020373;28;20084;-78
2022/05/16 05:52:32;;;;;;;2.80;1.63;;;;;;;22.41;nan;100413.31;5035870;28;20066;-78
2022/05/16 05:54:57;;;;;;;3.30;1.60;;;;;;;22.40;nan;100422.44;5036160;28;20038;-78
2022/05/16 05:57:25;;;;;;;3.75;1.67;;;;;;;22.41;nan;100421.38;5037162;28;20557;-78
2022/05/16 05:59:51;;;;;;;3.60;1.95;;;;;;;22.37;nan;100414.81;5036287;28;20037;-78
2022/05/16 06:02:16;;;;;;;2.25;1.40;;;;;;;22.28;nan;100425.09;5035872;28;20479;-78
2022/05/16 06:04:41;;;;;;;2.30;1.40;;;;;;;22.17;nan;100433.97;5036092;28;20044;-78
2022/05/16 06:07:07;;;;;;;1.85;1.23;;;;;;;22.12;nan;100440.03;5035710;28;20030;-78
2022/05/16 06:09:32;;;;;;;2.42;1.45;;;;;;;22.12;nan;100436.50;5032611;28;20045;-79
2022/05/16 06:11:59;;;;;;;1.83;1.15;;;;;;;22.11;nan;100437.56;5033924;28;20064;-80
2022/05/16 06:14:26;;;;;;;2.40;1.38;;;;;;;21.98;nan;100444.78;5032562;28;20056;-80
2022/05/16 06:16:53;;;;;;;2.78;1.25;;;;;;;22.01;nan;100438.13;5032820;28;20036;-79
2022/05/16 06:19:18;;;;;;;2.08;1.30;;;;;;;22.07;nan;100447.97;5030397;28;20038;-79
2022/05/16 06:21:44;;;;;;;2.75;1.45;;;;;;;22.11;nan;100443.78;5029557;28;20517;-80
2022/05/16 06:25:31;;;;;;;2.25;1.40;;;;;;;22.22;nan;100461.06;5030423;28;20116;-80
2022/05/16 06:26:54;;;;;;;3.08;1.40;;;;;;;22.30;nan;100470.69;5032002;28;20499;-79
2022/05/16 06:29:20;;;;;;;2.63;1.30;;;;;;;22.33;nan;100472.91;5030729;28;20055;-79
2022/05/16 06:31:46;;;;;;;2.47;1.33;;;;;;;22.43;nan;100479.38;5031800;28;20076;-80
2022/05/16 06:34:11;;;;;;;1.95;1.20;;;;;;;22.60;nan;100463.34;5032604;28;20065;-80
2022/05/16 06:36:36;;;;;;;4.40;1.58;;;;;;;22.73;nan;100470.38;5035139;28;20041;-80
2022/05/16 06:39:02;;;;;;;3.45;1.52;;;;;;;22.92;nan;100468.41;5027208;28;20121;-80
2022/05/16 06:41:27;;;;;;;4.07;1.60;;;;;;;23.19;nan;100465.22;5034416;28;20033;-80
2022/05/16 06:43:52;;;;;;;4.10;1.73;;;;;;;23.49;nan;100470.47;5027951;28;20042;-81
2022/05/16 06:46:18;;;;;;;2.60;1.38;;;;;;;23.81;nan;100478.97;5031801;28;21010;-80
2022/05/16 06:48:43;;;;;;;6.32;2.13;;;;;;;24.01;nan;100478.53;5030094;28;20037;-80
2022/05/16 06:51:08;;;;;;;4.60;2.22;;;;;;;24.16;nan;100486.09;5012007;28;20045;-81
2022/05/16 06:53:34;;;;;;;3.58;1.98;;;;;;;24.19;nan;100485.59;5029449;28;20132;-80
2022/05/16 06:56:00;;;;;;;4.50;2.03;;;;;;;24.00;nan;100486.88;5033087;28;20040;-79
2022/05/16 06:58:26;;;;;;;4.03;1.80;;;;;;;23.99;nan;100486.06;5029956;28;20092;-79
2022/05/16 07:00:52;;;;;;;2.72;1.80;;;;;;;23.91;nan;100495.38;5032346;28;20034;-79
2022/05/16 07:03:18;;;;;;;3.90;1.85;;;;;;;23.55;nan;100491.13;5031784;28;20061;-80
2022/05/16 07:05:45;;;;;;;3.65;1.80;;;;;;;23.44;nan;100495.47;5032637;28;20381;-81
2022/05/16 07:08:11;;;;;;;3.45;2.10;;;;;;;22.76;nan;100499.56;5014780;28;20043;-79
2022/05/16 07:10:38;;;;;;;4.32;1.92;;;;;;;22.84;nan;100501.13;5032012;28;20060;-80
2022/05/16 07:13:03;;;;;;;3.95;1.98;;;;;;;22.99;nan;100498.78;5032415;28;20471;-80
2022/05/16 07:15:28;;;;;;;5.50;2.47;;;;;;;23.20;nan;100505.47;5010010;28;20052;-79
2022/05/16 07:17:54;;;;;;;4.40;2.13;;;;;;;23.42;nan;100508.38;5027525;28;20061;-79
2022/05/16 07:20:19;;;;;;;5.30;2.50;;;;;;;23.57;nan;100512.44;5025946;28;20022;-80
2022/05/16 07:22:46;;;;;;;4.15;2.30;;;;;;;23.63;nan;100512.31;5013168;28;20056;-80
2022/05/16 07:25:13;;;;;;;5.68;2.35;;;;;;;23.77;nan;100510.22;5032409;28;20044;-80
2022/05/16 07:27:57;;;;;;;4.30;2.20;;;;;;;23.90;nan;100509.09;5023792;28;20121;-80
2022/05/16 07:30:34;;;;;;;4.20;2.10;;;;;;;24.11;nan;100502.22;5031673;28;20038;-80
2022/05/16 07:33:01;;;;;;;4.28;2.17;;;;;;;24.17;nan;100509.34;5033199;28;20063;-80
2022/05/16 07:35:31;;;;;;;4.60;2.08;;;;;;;24.07;nan;100509.97;5040755;28;20037;-80
2022/05/16 07:37:58;;;;;;;4.80;2.30;;;;;;;23.90;nan;100512.63;5034173;28;20075;-80
2022/05/16 07:40:26;;;;;;;4.75;2.25;;;;;;;23.86;nan;100505.22;5015282;28;20061;-79
2022/05/16 07:42:53;;;;;;;4.60;2.40;;;;;;;24.16;nan;100510.41;5031382;28;20121;-80
2022/05/16 07:45:19;;;;;;;4.65;2.20;;;;;;;24.90;nan;100513.03;5030655;28;20036;-80
2022/05/16 07:47:45;;;;;;;6.75;2.25;;;;;;;25.64;nan;100514.63;5032421;28;20426;-79
2022/05/16 07:50:11;;;;;;;3.90;2.35;;;;;;;26.12;nan;100515.72;5016850;28;20038;-80
2022/05/16 07:52:37;;;;;;;4.13;2.22;;;;;;;26.36;nan;100510.84;5036609;28;20052;-80
2022/05/16 07:55:03;;;;;;;3.78;2.15;;;;;;;26.57;nan;100511.03;5040824;28;20044;-80
2022/05/16 07:57:30;;;;;;;3.67;1.80;;;;;;;27.04;nan;100513.00;5015741;28;20415;-80
2022/05/16 07:59:55;;;;;;;;;;;;;;;26.98;nan;100508.59;5035701;28;20067;-80
2022/05/16 08:02:21;;;;;;;3.92;2.00;;;;;;;27.43;nan;100509.97;5033605;28;19964;-80
2022/05/16 08:04:46;;;;;;;7.82;2.42;;;;;;;27.66;nan;100519.59;5026522;28;20029;-79
2022/05/16 08:07:11;;;;;;;5.05;2.47;;;;;;;27.75;nan;100513.38;5036085;28;20554;-80
2022/05/16 08:12:30;;;;;;;4.65;2.35;;;;;;;28.54;nan;100525.00;5032049;28;20084;-80
2022/05/16 08:14:56;;;;;;;4.90;2.22;;;;;;;29.03;nan;100531.78;5035808;28;20045;-80
2022/05/16 08:17:22;;;;;;;4.93;1.98;;;;;;;29.34;nan;100524.41;5032816;28;20065;-80
2022/05/16 08:19:48;;;;;;;4.65;2.10;;;;;;;29.58;nan;100529.19;5014820;28;20033;-80
2022/05/16 08:22:14;;;;;;;5.88;2.50;;;;;;;30.14;nan;100528.13;5027777;28;20057;-79
2022/05/16 08:24:40;;;;;;;5.50;2.33;;;;;;;30.52;nan;100536.63;5036695;28;20041;-80
2022/05/16 08:27:06;;;;;;;4.75;2.20;;;;;;;30.74;nan;100526.06;5039226;28;20067;-79
2022/05/16 08:29:32;;;;;;;5.57;2.50;;;;;;;31.12;nan;100526.28;5031555;28;20053;-79
2022/05/16 08:31:57;;;;;;;3.25;2.10;;;;;;;31.20;nan;100539.31;5029077;28;20266;-80
2022/05/16 08:34:25;;;;;;;6.90;2.05;;;;;;;31.80;nan;100540.78;5037456;28;20060;-80
2022/05/16 08:39:54;;;;;;;4.38;2.17;;;;;;;32.50;nan;100538.19;5033402;28;20057;-81
2022/05/16 08:42:27;;;;;;;6.78;2.38;;;;;;;32.70;nan;100550.72;5028463;28;20037;-79
2022/05/16 08:44:59;;;;;;;3.40;1.92;;;;;;;33.02;nan;100557.31;5036526;28;20399;-80
2022/05/16 08:48:05;;;;;;;4.95;2.35;;;;;;;33.13;nan;100550.56;5033715;28;20030;-80
2022/05/16 08:50:41;;;;;;;5.32;2.63;;;;;;;32.82;nan;100552.19;5031581;28;20057;-80
2022/05/16 08:53:16;;;;;;;3.95;1.92;;;;;;;33.22;nan;100556.13;5033678;28;20033;-81
2022/05/16 08:55:47;;;;;;;4.22;2.15;;;;;;;33.39;nan;100545.38;5032774;28;20450;-80
2022/05/16 08:58:37;;;;;;;7.60;2.33;;;;;;;33.39;nan;100548.09;5032746;28;20045;-79
2022/05/16 09:01:10;;;;;;;5.35;2.20;;;;;;;33.75;nan;100558.41;5036741;28;20048;-80
2022/05/16 09:03:43;;;;;;;3.78;1.90;;;;;;;33.86;nan;100558.19;5033130;28;20040;-81
2022/05/16 09:06:17;;;;;;;5.72;2.10;;;;;;;34.37;nan;100565.25;5032971;28;20064;-80
2022/05/16 09:08:53;;;;;;;5.55;2.10;;;;;;;34.71;nan;100552.94;5033157;28;20057;-81
2022/05/16 09:11:30;;;;;;;3.88;2.20;;;;;;;34.91;nan;100546.13;5036752;28;20053;-80
2022/05/16 09:14:31;;;;;;;3.33;1.90;;;;;;;35.70;nan;100543.38;5036038;28;20053;-81
2022/05/16 09:17:08;;;;;;;5.85;2.10;;;;;;;35.81;nan;100546.63;5000136;28;20029;-82
2022/05/16 09:19:58;;;;;;;4.78;1.95;;;;;;;35.99;nan;100543.91;5018980;28;20029;-82
2022/05/16 09:22:31;;;;;;;4.50;2.40;;;;;;;35.28;nan;100553.13;5026477;28;20044;-82
2022/05/16 09:25:13;;;;;;;4.70;2.30;;;;;;;35.07;nan;100541.84;5015190;28;20287;-82
2022/05/16 09:30:27;;;;;;;3.83;2.00;;;;;;;36.28;nan;100543.28;5035240;28;20044;-82
2022/05/16 09:33:01;;;;;;;6.57;2.43;;;;;;;37.12;nan;100546.56;5028805;28;20050;-82
2022/05/16 09:35:46;;;;;;;3.72;2.10;;;;;;;37.87;nan;100555.09;5025097;28;20233;-82
2022/05/16 09:38:12;;;;;;;5.25;2.17;;;;;;;38.41;nan;100554.34;5014329;28;20071;-82
2022/05/16 09:40:45;;;;;;;5.55;2.03;;;;;;;38.71;nan;100563.38;5032291;28;20037;-82
2022/05/16 09:43:20;;;;;;;3.88;2.00;;;;;;;38.97;nan;100563.06;5033254;28;20464;-82
2022/05/16 09:45:50;;;;;;;3.90;2.10;;;;;;;39.40;nan;100558.19;5026276;28;20091;-82
2022/05/16 09:48:18;;;;;;;5.63;2.58;;;;;;;39.16;nan;100556.19;5028735;28;20026;-83
2022/05/16 09:51:01;;;;;;;6.60;2.30;;;;;;;38.49;nan;100566.50;5031125;28;20072;-83
2022/05/16 09:53:29;;;;;;;5.78;2.50;;;;;;;37.74;nan;100558.94;5030061;28;20089;-82
2022/05/16 09:56:02;;;;;;;5.70;2.60;;;;;;;37.55;nan;100564.88;5036033;28;20074;-83
2022/05/16 09:58:46;;;;;;;5.25;2.53;;;;;;;37.81;nan;100570.25;5014399;28;20527;-83
2022/05/16 10:01:12;;;;;;;5.13;2.58;;;;;;;37.89;nan;100574.88;5030129;28;20116;-83
2022/05/16 10:03:49;;;;;;;5.28;2.50;;;;;;;38.02;nan;100587.66;5033271;28;20386;-82
2022/05/16 10:06:30;;;;;;;4.10;2.17;;;;;;;38.27;nan;100585.03;5035200;28;20834;-83
2022/05/16 10:09:04;;;;;;;5.90;2.50;;;;;;;38.14;nan;100586.94;5031755;28;20716;-82
2022/05/16 10:11:29;;;;;;;;;;;;;;;37.39;nan;100573.69;5035459;28;20044;-80
2022/05/16 10:13:55;;;;;;;6.47;2.60;;;;;;;38.06;nan;100581.47;5036807;28;19976;-82
2022/05/16 10:16:24;;;;;;;5.75;2.28;;;;;;;38.43;nan;100585.22;5029497;28;20134;-83
2022/05/16 10:18:54;;;;;;;4.00;2.30;;;;;;;38.20;nan;100584.75;5031389;28;20140;-82
2022/05/16 10:21:25;;;;;;;5.13;2.35;;;;;;;38.21;nan;100594.66;5018858;28;20033;-82
2022/05/16 10:23:52;;;;;;;6.00;2.40;;;;;;;38.01;nan;100580.50;5034611;28;20056;-83
2022/05/16 10:26:21;;;;;;;6.80;2.90;;;;;;;37.88;nan;100580.72;5012027;28;20140;-81
2022/05/16 10:28:54;;;;;;;6.93;2.60;;;;;;;37.87;nan;100579.13;5032095;28;20033;-81
2022/05/16 10:34:12;;;;;;;5.47;2.50;;;;;;;38.43;nan;100571.41;5036118;28;20573;-81
2022/05/16 10:36:39;;;;;;;7.53;2.90;;;;;;;37.70;nan;100575.34;5032145;28;20053;-80
2022/05/16 10:39:13;;;;;;;4.57;2.25;;;;;;;37.31;nan;100560.75;5035363;28;20041;-80
2022/05/16 10:41:51;;;;;;;4.15;2.20;;;;;;;35.89;nan;100564.28;5028934;28;20045;-80
2022/05/16 10:44:31;;;;;;;8.65;2.50;;;;;;;35.23;nan;100567.81;5035483;28;20113;-80
2022/05/16 10:47:09;;;;;;;5.88;2.20;;;;;;;35.00;nan;100546.97;5031071;28;20042;-80
2022/05/16 10:49:41;;;;;;;6.40;2.65;;;;;;;33.63;nan;100549.84;5026595;28;20042;-81
2022/05/16 10:52:25;;;;;;;4.88;2.75;;;;;;;31.51;nan;100552.63;5032069;28;20030;-81
2022/05/16 10:54:51;;;;;;;13.85;3.03;;;;;;;29.71;nan;100563.25;5036757;28;20087;-80
2022/05/16 10:57:30;;;;;;;9.77;2.80;;;;;;;26.92;nan;100569.38;5035347;28;20037;-79
2022/05/16 11:00:07;;;;;;;7.47;2.63;;;;;;;24.89;nan;100562.78;5013307;28;20037;-79
2022/05/16 11:02:47;;;;;;;7.27;2.60;;;;;;;23.70;nan;100574.28;5032208;28;20422;-80
2022/05/16 11:05:26;;;;;;;6.32;2.85;;;;;;;22.78;nan;100572.94;5032293;28;20487;-80
2022/05/16 11:07:52;;;;;;;;;;;;;;;22.14;nan;100588.72;5034237;28;20068;-80
2022/05/16 11:10:20;;;;;;;8.07;3.00;;;;;;;22.30;nan;100595.41;5032082;28;19917;-80
2022/05/16 11:12:46;;;;;;;;;;;;;;;22.77;nan;100587.50;5026618;28;20029;-80
2022/05/16 11:15:29;;;;;;;7.40;2.50;;;;;;;23.14;nan;100584.63;5034166;28;20639;-79
2022/05/16 11:18:01;;;;;;;6.40;2.78;;;;;;;23.41;nan;100592.28;5036709;28;20105;-79
2022/05/16 11:20:30;;;;;;;6.22;2.97;;;;;;;23.57;nan;100588.03;5030397;28;20046;-81
2022/05/16 11:23:14;;;;;;;6.82;3.08;;;;;;;23.71;nan;100600.22;5037134;28;20045;-81
2022/05/16 11:25:54;;;;;;;7.90;2.70;;;;;;;23.90;nan;100590.94;5022490;28;20041;-83
2022/05/16 11:28:37;;;;;;;4.40;2.40;;;;;;;24.02;nan;100599.00;5035408;28;20033;-80
2022/05/16 11:31:12;;;;;;;5.53;2.10;;;;;;;24.09;nan;100590.78;5039549;28;20048;-81
2022/05/16 11:33:53;;;;;;;6.07;2.40;;;;;;;24.14;nan;100597.09;5039265;28;20064;-79
2022/05/16 11:36:21;;;;;;;4.03;1.90;;;;;;;24.24;nan;100596.50;5038920;28;20271;-79
2022/05/16 11:39:05;;;;;;;4.78;2.30;;;;;;;24.36;nan;100596.44;5023246;28;20044;-80
2022/05/16 11:42:08;;;;;;;5.97;2.10;;;;;;;24.47;nan;100606.41;5044870;28;20044;-80
2022/05/16 11:45:06;;;;;;;5.60;2.03;;;;;;;24.61;nan;100601.53;4996524;28;20144;-80
2022/05/16 11:47:45;;;;;;;4.00;1.67;;;;;;;24.63;nan;100614.81;5042048;28;20041;-79
2022/05/16 11:50:17;;;;;;;4.75;1.73;;;;;;;24.62;nan;100608.56;5027214;28;20116;-79
2022/05/16 11:52:57;;;;;;;3.60;1.73;;;;;;;24.64;nan;100611.03;5038685;28;20113;-80
2022/05/16 12:01:04;;;;;;;5.45;2.00;;;;;;;24.38;nan;100619.47;5030905;28;20072;-80
2022/05/16 12:03:41;;;;;;;5.15;1.80;;;;;;;24.23;nan;100624.56;5029642;28;20502;-80
2022/05/16 12:06:26;;;;;;;5.05;1.90;;;;;;;24.29;nan;100634.44;5029247;28;20107;-80
2022/05/16 12:09:15;;;;;;;7.53;2.28;;;;;;;24.30;nan;100629.84;5016805;28;20101;-80
2022/05/16 12:11:54;;;;;;;3.25;1.73;;;;;;;24.38;nan;100626.75;5013568;28;20423;-80
2022/05/16 12:14:28;;;;;;;3.72;1.23;;;;;;;24.47;nan;100638.84;5039369;28;20657;-80
2022/05/16 12:16:57;;;;;;;5.80;1.58;;;;;;;24.65;nan;100635.13;5025905;28;20522;-80
2022/05/16 12:19:30;;;;;;;4.35;1.60;;;;;;;25.34;nan;100636.88;5035753;28;20033;-80
2022/05/16 12:21:57;;;;;;;4.20;1.40;;;;;;;26.02;nan;100643.78;5038805;28;20040;-80
2022/05/16 12:24:24;;;;;;;7.47;1.60;;;;;;;26.26;nan;100641.66;5037480;28;20048;-78
2022/05/16 12:27:00;;;;;;;5.13;1.40;;;;;;;26.20;nan;100648.09;5018404;28;20059;-79
2022/05/16 12:29:37;;;;;;;3.08;1.40;;;;;;;26.08;nan;100644.69;5037104;28;20033;-80
2022/05/16 12:32:02;;;;;;;2.70;1.17;;;;;;;26.18;nan;100646.72;5012102;28;20405;-79